createdAt,value
2018-07-30T00:12:39.286Z,25.80
2018-07-30T00:15:33.270Z,25.90
2018-07-30T00:51:57.287Z,25.50
2018-07-30T02:05:27.720Z,24.30
2018-07-30T02:10:43.635Z,24.40
2018-07-30T02:13:11.427Z,24.30
2018-07-30T02:15:39.066Z,24.30
2018-07-30T02:18:08.231Z,24.20
2018-07-30T02:20:36.250Z,24.30
2018-07-30T02:23:06.061Z,24.40
2018-07-30T02:25:34.128Z,24.30
2018-07-30T02:28:01.669Z,24.20
2018-07-30T02:30:29.254Z,24.20
2018-07-30T02:39:15.962Z,23.90
2018-07-30T02:50:24.916Z,23.80
2018-07-30T02:52:52.897Z,23.70
2018-07-30T02:58:23.820Z,23.80
2018-07-30T03:00:52.337Z,23.80
2018-07-30T03:03:32.419Z,23.70
2018-07-30T03:06:01.477Z,23.70
2018-07-30T03:15:26.904Z,23.60
2018-07-30T03:20:53.125Z,23.60
2018-07-30T03:29:06.574Z,23.50
2018-07-30T03:31:52.341Z,23.60
2018-07-30T03:34:24.835Z,23.60
2018-07-30T03:42:55.586Z,23.50
2018-07-30T03:45:23.137Z,23.50
2018-07-30T03:48:13.811Z,23.50
2018-07-30T03:50:57.833Z,23.40
2018-07-30T03:53:37.820Z,23.40
2018-07-30T03:59:07.305Z,23.30
2018-07-30T04:04:28.112Z,23.10
2018-07-30T04:07:01.936Z,23.20
2018-07-30T04:09:29.533Z,23.20
2018-07-30T04:18:00.529Z,23.20
2018-07-30T04:23:32.906Z,23.20
2018-07-30T04:26:00.403Z,23.30
2018-07-30T04:28:50.367Z,23.30
2018-07-30T04:37:24.337Z,23.30
2018-07-30T04:39:55.382Z,23.40
2018-07-30T04:45:35.779Z,23.50
2018-07-30T04:51:06.513Z,23.50
2018-07-30T04:53:34.134Z,23.60
2018-07-30T04:56:07.962Z,23.50
2018-07-30T04:58:56.743Z,23.50
2018-07-30T05:01:24.305Z,23.50
2018-07-30T05:03:58.260Z,23.50
2018-07-30T05:06:38.789Z,23.40
2018-07-30T05:09:07.075Z,23.60
2018-07-30T05:11:51.418Z,23.70
2018-07-30T05:20:30.493Z,23.60
2018-07-30T05:23:46.488Z,23.80
2018-07-30T05:26:14.323Z,23.80
2018-07-30T05:31:35.779Z,23.80
2018-07-30T05:34:03.418Z,23.80
2018-07-30T05:42:27.127Z,23.90
2018-07-30T06:12:27.520Z,24.10
2018-07-30T06:18:00.937Z,24.30
2018-07-30T06:20:39.548Z,24.20
2018-07-30T06:23:07.189Z,24.10
2018-07-30T06:31:41.182Z,24.40
2018-07-30T06:34:10.393Z,24.50
2018-07-30T06:42:40.835Z,24.70
2018-07-30T06:54:05.926Z,25.20
2018-07-30T06:56:59.634Z,25.20
2018-07-30T06:59:31.050Z,25.30
2018-07-30T07:20:26.525Z,25.30
2018-07-30T07:22:55.164Z,25.30
2018-07-30T07:25:35.237Z,25.50
2018-07-30T07:28:02.851Z,25.70
2018-07-30T07:30:30.397Z,25.80
2018-07-30T07:32:58.004Z,25.80
2018-07-30T07:35:25.617Z,25.90
2018-07-30T07:37:53.313Z,25.90
2018-07-30T07:40:43.888Z,26.00
2018-07-30T07:43:11.404Z,26.00
2018-07-30T07:48:46.931Z,26.40
2018-07-30T07:54:18.169Z,26.50
2018-07-30T08:14:13.528Z,27.00
2018-07-30T08:16:54.108Z,26.90
2018-07-30T08:22:42.109Z,26.90
2018-07-30T08:25:14.068Z,27.20
2018-07-30T08:27:42.473Z,27.10
2018-07-30T08:30:10.223Z,27.30
2018-07-30T08:32:44.748Z,27.10
2018-07-30T08:35:12.390Z,27.10
2018-07-30T08:37:45.515Z,27.10
2018-07-30T08:40:16.760Z,27.10
2018-07-30T08:42:44.264Z,27.20
2018-07-30T08:45:11.950Z,27.50
2018-07-30T08:47:39.503Z,27.40
2018-07-30T08:50:07.020Z,27.70
2018-07-30T08:52:34.738Z,27.70
2018-07-30T08:58:05.069Z,27.80
2018-07-30T09:00:32.572Z,27.80
2018-07-30T09:03:00.252Z,27.90
2018-07-30T09:05:27.678Z,27.90
2018-07-30T09:14:06.499Z,28.30
2018-07-30T09:19:36.356Z,28.40
2018-07-30T09:22:04.586Z,28.60
2018-07-30T09:24:32.213Z,28.70
2018-07-30T09:26:59.778Z,28.80
2018-07-30T09:29:28.343Z,28.90
2018-07-30T09:31:55.789Z,29.20
2018-07-30T09:34:58.345Z,29.30
2018-07-30T09:37:26.532Z,29.40
2018-07-30T09:39:53.934Z,29.40
2018-07-30T09:42:21.423Z,29.40
2018-07-30T09:44:49.065Z,29.50
2018-07-30T09:47:16.711Z,29.70
2018-07-30T09:49:45.922Z,29.60
2018-07-30T09:52:21.258Z,29.70
2018-07-30T09:54:50.178Z,29.80
2018-07-30T09:57:24.326Z,30.00
2018-07-30T09:59:51.991Z,30.00
2018-07-30T10:02:20.696Z,30.30
2018-07-30T10:04:49.271Z,30.40
2018-07-30T10:07:16.714Z,30.80
2018-07-30T10:09:44.220Z,31.10
2018-07-30T10:12:11.805Z,31.40
2018-07-30T10:14:43.717Z,31.50
2018-07-30T10:17:13.092Z,32.00
2018-07-30T10:22:33.199Z,32.30
2018-07-30T10:25:00.864Z,32.30
2018-07-30T10:27:28.418Z,32.40
2018-07-30T10:30:05.651Z,32.70
2018-07-30T10:32:33.116Z,33.00
2018-07-30T10:35:00.643Z,33.00
2018-07-30T10:37:38.323Z,33.10
2018-07-30T10:40:06.176Z,33.30
2018-07-30T10:42:34.411Z,33.60
2018-07-30T10:45:01.837Z,33.70
2018-07-30T10:47:29.366Z,33.80
2018-07-30T10:49:56.916Z,33.80
2018-07-30T10:52:24.583Z,34.00
2018-07-30T10:54:52.067Z,34.10
2018-07-30T10:57:19.842Z,34.20
2018-07-30T10:59:47.385Z,34.20
2018-07-30T11:02:15.004Z,34.30
2018-07-30T11:04:42.857Z,34.50
2018-07-30T11:07:10.952Z,34.60
2018-07-30T11:09:38.464Z,34.80
2018-07-30T11:12:06.108Z,35.10
2018-07-30T11:14:33.648Z,35.10
2018-07-30T11:17:01.259Z,35.30
2018-07-30T11:19:28.743Z,35.40
2018-07-30T11:21:56.286Z,35.30
2018-07-30T11:24:23.757Z,35.60
2018-07-30T11:26:51.255Z,35.80
2018-07-30T11:29:18.851Z,35.60
2018-07-30T11:31:46.557Z,35.60
2018-07-30T11:34:15.491Z,35.80
2018-07-30T11:36:43.124Z,36.00
2018-07-30T11:39:11.714Z,36.10
2018-07-30T11:41:40.483Z,36.20
2018-07-30T11:44:08.437Z,36.20
2018-07-30T11:46:35.974Z,35.90
2018-07-30T11:49:03.490Z,35.90
2018-07-30T11:51:31.075Z,36.00
2018-07-30T11:53:58.991Z,36.10
2018-07-30T11:56:26.522Z,36.10
2018-07-30T11:58:54.093Z,36.10
2018-07-30T12:01:22.137Z,36.20
2018-07-30T12:03:49.746Z,36.10
2018-07-30T12:06:17.247Z,36.30
2018-07-30T12:08:44.830Z,36.50
2018-07-30T12:11:12.412Z,36.60
2018-07-30T12:13:39.881Z,36.60
2018-07-30T12:16:07.411Z,36.70
2018-07-30T12:18:35.048Z,36.70
2018-07-30T12:21:02.552Z,36.80
2018-07-30T12:23:30.140Z,37.00
2018-07-30T12:25:57.724Z,37.20
2018-07-30T12:28:25.333Z,37.40
2018-07-30T12:30:52.956Z,37.40
2018-07-30T12:33:20.416Z,37.50
2018-07-30T12:35:48.009Z,37.60
2018-07-30T12:38:15.532Z,37.70
2018-07-30T12:40:42.983Z,37.60
2018-07-30T12:43:10.476Z,37.60
2018-07-30T12:45:45.642Z,37.70
2018-07-30T12:48:13.322Z,37.70
2018-07-30T12:50:40.939Z,37.90
2018-07-30T12:53:08.545Z,37.90
2018-07-30T12:55:36.501Z,37.80
2018-07-30T12:58:04.284Z,37.90
2018-07-30T13:00:31.738Z,37.90
2018-07-30T13:02:59.588Z,37.80
2018-07-30T13:05:26.901Z,38.00
2018-07-30T13:07:54.437Z,38.10
2018-07-30T13:10:22.006Z,38.10
2018-07-30T13:12:49.457Z,38.10
2018-07-30T13:15:16.981Z,38.10
2018-07-30T13:17:44.864Z,38.20
2018-07-30T13:20:13.082Z,38.30
2018-07-30T13:22:40.735Z,38.40
2018-07-30T13:25:08.280Z,38.50
2018-07-30T13:27:36.034Z,38.60
2018-07-30T13:30:04.202Z,38.70
2018-07-30T13:32:31.893Z,38.80
2018-07-30T13:34:59.285Z,38.90
2018-07-30T13:37:26.772Z,39.00
2018-07-30T13:39:54.358Z,39.10
2018-07-30T13:42:21.987Z,39.10
2018-07-30T13:44:49.604Z,39.20
2018-07-30T13:47:17.185Z,39.30
2018-07-30T13:49:44.768Z,39.40
2018-07-30T13:52:12.348Z,39.40
2018-07-30T13:54:39.954Z,39.40
2018-07-30T13:57:07.465Z,39.40
2018-07-30T13:59:34.942Z,39.50
2018-07-30T14:02:02.464Z,39.60
2018-07-30T14:04:30.032Z,39.50
2018-07-30T14:06:57.565Z,39.30
2018-07-30T14:09:25.078Z,39.30
2018-07-30T14:11:52.664Z,39.40
2018-07-30T14:14:20.222Z,39.40
2018-07-30T14:16:47.744Z,39.50
2018-07-30T14:19:15.166Z,39.60
2018-07-30T14:21:42.651Z,39.80
2018-07-30T14:24:10.140Z,39.90
2018-07-30T14:26:37.596Z,39.80
2018-07-30T14:29:05.681Z,39.80
2018-07-30T14:31:33.171Z,39.90
2018-07-30T14:34:00.552Z,39.60
2018-07-30T14:36:27.952Z,39.50
2018-07-30T14:38:55.499Z,39.30
2018-07-30T14:41:22.940Z,39.10
2018-07-30T14:43:50.472Z,38.90
2018-07-30T14:46:18.033Z,38.90
2018-07-30T14:48:45.621Z,38.80
2018-07-30T14:51:13.131Z,38.40
2018-07-30T14:53:40.699Z,38.50
2018-07-30T14:56:08.201Z,38.50
2018-07-30T14:58:35.689Z,38.60
2018-07-30T15:01:03.284Z,38.60
2018-07-30T15:03:30.774Z,38.60
2018-07-30T15:05:58.288Z,38.40
2018-07-30T15:08:25.821Z,38.20
2018-07-30T15:10:53.354Z,38.30
2018-07-30T15:13:20.908Z,38.50
2018-07-30T15:15:48.341Z,38.80
2018-07-30T15:18:15.867Z,39.00
2018-07-30T15:20:43.255Z,39.00
2018-07-30T15:23:10.681Z,39.20
2018-07-30T15:25:38.185Z,39.40
2018-07-30T15:28:05.796Z,39.40
2018-07-30T15:30:33.173Z,39.30
2018-07-30T15:33:00.630Z,39.00
2018-07-30T15:35:28.082Z,38.60
2018-07-30T15:37:55.560Z,38.60
2018-07-30T15:40:23.023Z,38.50
2018-07-30T15:42:50.429Z,38.50
2018-07-30T15:45:17.904Z,38.50
2018-07-30T15:47:45.617Z,38.30
2018-07-30T15:50:13.158Z,38.10
2018-07-30T15:52:40.651Z,37.90
2018-07-30T15:55:08.151Z,37.80
2018-07-30T15:57:35.624Z,37.80
2018-07-30T16:02:31.045Z,37.70
2018-07-30T16:04:58.602Z,37.70
2018-07-30T16:07:26.108Z,37.50
2018-07-30T16:09:53.602Z,37.20
2018-07-30T16:12:21.045Z,37.10
2018-07-30T16:14:49.703Z,36.90
2018-07-30T16:17:17.194Z,36.90
2018-07-30T16:19:44.614Z,36.70
2018-07-30T16:22:12.072Z,36.60
2018-07-30T16:24:39.507Z,36.60
2018-07-30T16:27:06.943Z,36.60
2018-07-30T16:29:34.757Z,36.60
2018-07-30T16:32:02.216Z,36.80
2018-07-30T16:34:29.664Z,37.00
2018-07-30T16:36:57.165Z,37.10
2018-07-30T16:39:24.675Z,37.20
2018-07-30T16:41:52.091Z,37.20
2018-07-30T16:44:19.631Z,37.30
2018-07-30T16:46:47.181Z,37.40
2018-07-30T16:49:14.601Z,37.50
2018-07-30T16:51:42.192Z,37.50
2018-07-30T16:54:09.638Z,37.40
2018-07-30T16:56:37.100Z,37.20
2018-07-30T16:59:04.567Z,37.20
2018-07-30T17:01:32.007Z,37.10
2018-07-30T17:03:59.630Z,37.10
2018-07-30T17:06:27.100Z,37.10
2018-07-30T17:08:54.568Z,36.80
2018-07-30T17:11:21.968Z,36.70
2018-07-30T17:13:49.444Z,36.60
2018-07-30T17:16:16.833Z,36.50
2018-07-30T17:18:44.319Z,36.40
2018-07-30T17:21:12.025Z,36.20
2018-07-30T17:23:39.536Z,36.10
2018-07-30T17:26:07.016Z,36.10
2018-07-30T17:28:34.494Z,36.00
2018-07-30T17:31:01.915Z,35.90
2018-07-30T17:33:29.448Z,35.70
2018-07-30T17:35:56.963Z,35.60
2018-07-30T17:38:24.425Z,35.50
2018-07-30T17:40:52.019Z,35.40
2018-07-30T17:43:19.562Z,35.40
2018-07-30T17:45:46.919Z,35.30
2018-07-30T17:48:14.397Z,35.30
2018-07-30T17:50:42.893Z,35.30
2018-07-30T17:53:10.374Z,35.20
2018-07-30T17:55:37.761Z,35.10
2018-07-30T17:58:05.218Z,35.10
2018-07-30T18:00:32.680Z,35.10
2018-07-30T18:03:00.136Z,35.10
2018-07-30T18:05:27.714Z,35.00
2018-07-30T18:07:55.172Z,35.00
2018-07-30T18:10:22.599Z,34.90
2018-07-30T18:12:49.968Z,34.90
2018-07-30T18:15:17.451Z,34.80
2018-07-30T18:17:45.017Z,34.80
2018-07-30T18:20:13.364Z,34.70
2018-07-30T18:22:40.797Z,34.70
2018-07-30T18:25:08.272Z,34.60
2018-07-30T18:27:35.789Z,34.60
2018-07-30T18:30:03.878Z,34.50
2018-07-30T18:32:31.334Z,34.50
2018-07-30T18:34:58.820Z,34.30
2018-07-30T18:37:26.253Z,34.30
2018-07-30T18:39:53.826Z,34.20
2018-07-30T18:42:21.296Z,34.10
2018-07-30T18:44:48.836Z,34.00
2018-07-30T18:47:16.235Z,33.90
2018-07-30T18:49:44.580Z,33.80
2018-07-30T18:52:11.986Z,33.80
2018-07-30T18:54:39.429Z,33.70
2018-07-30T18:57:06.962Z,33.70
2018-07-30T18:59:34.481Z,33.60
2018-07-30T19:02:02.031Z,33.50
2018-07-30T19:04:29.496Z,33.50
2018-07-30T19:06:56.953Z,33.30
2018-07-30T19:09:25.616Z,33.20
2018-07-30T19:11:53.165Z,33.10
2018-07-30T19:14:20.685Z,33.10
2018-07-30T19:16:52.434Z,33.00
2018-07-30T19:19:20.204Z,32.90
2018-07-30T19:21:48.208Z,32.80
2018-07-30T19:24:16.578Z,32.80
2018-07-30T19:26:44.036Z,32.70
2018-07-30T19:29:11.390Z,32.50
2018-07-30T19:31:39.012Z,32.40
2018-07-30T19:34:06.797Z,32.30
2018-07-30T19:36:34.292Z,32.10
2018-07-30T19:39:01.780Z,31.80
2018-07-30T19:41:29.339Z,31.60
2018-07-30T19:43:56.773Z,31.50
2018-07-30T19:46:24.247Z,31.40
2018-07-30T19:48:51.866Z,31.40
2018-07-30T19:51:19.301Z,31.30
2018-07-30T19:53:46.824Z,31.20
2018-07-30T19:56:15.481Z,31.10
2018-07-30T19:58:43.314Z,31.00
2018-07-30T20:01:10.652Z,30.90
2018-07-30T20:03:38.241Z,30.90
2018-07-30T20:06:05.681Z,30.80
2018-07-30T20:08:33.171Z,30.80
2018-07-30T20:11:04.254Z,30.80
2018-07-30T20:13:31.676Z,30.70
2018-07-30T20:15:59.195Z,30.60
2018-07-30T20:18:26.715Z,30.50
2018-07-30T20:20:54.289Z,30.40
2018-07-30T20:23:22.880Z,30.30
2018-07-30T20:25:50.288Z,30.20
2018-07-30T20:28:17.740Z,30.10
2018-07-30T20:30:46.068Z,30.10
2018-07-30T20:33:13.635Z,30.10
2018-07-30T20:35:41.086Z,30.10
2018-07-30T20:38:08.822Z,30.20
2018-07-30T20:40:36.618Z,30.20
2018-07-30T20:43:04.124Z,30.10
2018-07-30T20:45:32.056Z,30.00
2018-07-30T20:47:59.565Z,29.90
2018-07-30T20:50:26.939Z,29.90
2018-07-30T20:52:54.519Z,29.80
2018-07-30T20:55:25.522Z,29.80
2018-07-30T20:57:53.016Z,29.70
2018-07-30T21:00:20.850Z,29.70
2018-07-30T21:02:50.349Z,29.60
2018-07-30T21:05:41.833Z,29.50
2018-07-30T21:08:09.486Z,29.60
2018-07-30T21:10:37.305Z,29.50
2018-07-30T21:13:05.527Z,29.60
2018-07-30T21:15:33.186Z,29.50
2018-07-30T21:18:00.834Z,29.40
2018-07-30T21:20:28.450Z,29.40
2018-07-30T21:22:55.884Z,29.40
2018-07-30T21:25:23.568Z,29.20
2018-07-30T21:27:51.187Z,29.10
2018-07-30T21:30:18.903Z,29.10
2018-07-30T21:32:46.757Z,29.20
2018-07-30T21:35:14.434Z,29.00
2018-07-30T21:37:41.982Z,29.10
2018-07-30T21:40:09.582Z,29.20
2018-07-30T21:42:37.191Z,29.00
2018-07-30T21:45:04.829Z,29.00
2018-07-30T21:47:32.421Z,29.00
2018-07-30T21:49:59.873Z,29.00
2018-07-30T21:52:27.435Z,28.90
2018-07-30T21:54:56.057Z,28.80
2018-07-30T21:57:23.681Z,28.70
2018-07-30T21:59:51.344Z,28.70
2018-07-30T22:02:18.932Z,28.70
2018-07-30T22:04:47.047Z,28.70
2018-07-30T22:07:15.183Z,28.70
2018-07-30T22:09:43.201Z,28.70
2018-07-30T22:12:11.430Z,28.60
2018-07-30T22:14:39.289Z,28.60
2018-07-30T22:17:06.812Z,28.60
2018-07-30T22:19:34.473Z,28.50
2018-07-30T22:22:02.161Z,28.50
2018-07-30T22:24:30.327Z,28.50
2018-07-30T22:26:58.075Z,28.50
2018-07-30T22:29:25.719Z,28.50
2018-07-30T22:32:21.103Z,28.50
2018-07-30T22:34:49.167Z,28.50
2018-07-30T22:37:17.471Z,28.40
2018-07-30T22:39:48.658Z,28.30
2018-07-30T22:42:16.419Z,28.20
2018-07-30T22:44:44.105Z,28.10
2018-07-30T22:47:11.649Z,28.10
2018-07-30T22:49:39.378Z,28.30
2018-07-30T22:52:07.009Z,28.20
2018-07-30T22:54:35.336Z,28.30
2018-07-30T22:57:02.884Z,28.20
2018-07-30T22:59:30.542Z,28.20
2018-07-30T23:01:58.028Z,28.10
2018-07-30T23:04:25.603Z,28.20
2018-07-30T23:06:53.358Z,28.10
2018-07-30T23:09:21.024Z,28.10
2018-07-30T23:11:48.686Z,28.10
2018-07-30T23:14:16.312Z,28.10
2018-07-30T23:16:43.863Z,28.10
2018-07-30T23:19:11.429Z,28.00
2018-07-30T23:21:39.072Z,27.80
2018-07-30T23:24:07.036Z,27.90
2018-07-30T23:26:34.682Z,27.90
2018-07-30T23:29:02.420Z,27.80
2018-07-30T23:31:29.903Z,27.80
2018-07-30T23:34:05.909Z,27.70
2018-07-30T23:36:34.067Z,27.70
2018-07-30T23:39:01.567Z,27.70
2018-07-30T23:41:29.105Z,27.60
2018-07-30T23:43:56.647Z,27.50
2018-07-30T23:46:24.211Z,27.40
2018-07-30T23:48:51.645Z,27.40
2018-07-30T23:51:19.279Z,27.40
2018-07-30T23:54:08.382Z,27.50
2018-07-30T23:56:36.030Z,27.40
2018-07-30T23:59:04.911Z,27.40
